createdAt,value
2022-10-29T01:04:14.058Z,19.40
2022-10-29T01:06:46.963Z,17.60
2022-10-29T01:09:13.987Z,17.60
2022-10-29T01:11:40.821Z,17.60
2022-10-29T01:14:23.242Z,17.50
2022-10-29T01:17:04.787Z,17.50
2022-10-29T02:20:48.642Z,17.40
2022-10-29T02:23:16.729Z,17.00
2022-10-29T02:25:43.719Z,17.00
2022-10-29T02:28:10.563Z,17.00
2022-10-29T02:30:37.361Z,16.90
2022-10-29T02:33:04.174Z,16.90
2022-10-29T02:35:30.924Z,16.90
2022-10-29T02:37:57.713Z,16.90
2022-10-29T02:40:24.517Z,16.90
2022-10-29T02:42:51.300Z,16.80
2022-10-29T03:07:24.698Z,16.70
2022-10-29T03:09:51.543Z,16.70
2022-10-29T03:12:18.330Z,16.70
2022-10-29T03:14:45.118Z,16.70
2022-10-29T03:17:12.016Z,16.70
2022-10-29T03:19:39.135Z,16.70
2022-10-29T03:22:05.908Z,16.70
2022-10-29T03:24:32.711Z,16.60
2022-10-29T03:26:59.473Z,16.60
2022-10-29T03:29:26.247Z,16.60
2022-10-29T03:31:53.190Z,16.50
2022-10-29T03:34:19.932Z,16.50
2022-10-29T03:36:46.720Z,16.60
2022-10-29T03:39:13.530Z,16.40
2022-10-29T03:41:40.282Z,16.40
2022-10-29T03:44:07.046Z,16.50
2022-10-29T03:46:34.262Z,16.50
2022-10-29T03:49:01.166Z,16.50
2022-10-29T03:51:28.972Z,16.50
2022-10-29T03:53:55.996Z,16.50
2022-10-29T03:56:22.749Z,16.50
2022-10-29T03:58:49.748Z,16.40
2022-10-29T04:01:16.668Z,16.40
2022-10-29T04:03:44.293Z,16.50
2022-10-29T04:06:14.227Z,16.40
2022-10-29T04:08:41.274Z,16.40
2022-10-29T04:11:11.948Z,16.40
2022-10-29T04:13:39.215Z,16.40
2022-10-29T04:16:10.291Z,16.40
2022-10-29T04:18:37.400Z,16.40
2022-10-29T04:26:34.654Z,16.40
2022-10-29T04:29:25.901Z,16.40
2022-10-29T04:31:52.677Z,16.30
2022-10-29T04:34:19.447Z,16.40
2022-10-29T04:36:46.268Z,16.40
2022-10-29T04:39:13.087Z,16.40
2022-10-29T04:41:40.011Z,16.40
2022-10-29T04:44:06.871Z,16.40
2022-10-29T04:46:33.671Z,16.30
2022-10-29T04:49:00.721Z,16.40
2022-10-29T04:51:30.017Z,16.40
2022-10-29T04:53:56.817Z,16.40
2022-10-29T04:56:24.689Z,16.30
2022-10-29T04:58:54.993Z,16.40
2022-10-29T05:01:21.954Z,16.40
2022-10-29T05:03:49.243Z,16.40
2022-10-29T05:06:20.192Z,16.40
2022-10-29T05:08:47.543Z,16.50
2022-10-29T05:11:15.831Z,16.40
2022-10-29T05:13:46.354Z,16.50
2022-10-29T05:16:16.214Z,16.50
2022-10-29T05:18:43.196Z,16.40
2022-10-29T05:21:10.053Z,16.30
2022-10-29T05:23:36.802Z,16.40
2022-10-29T05:26:03.673Z,16.40
2022-10-29T05:28:31.690Z,16.30
2022-10-29T05:31:01.584Z,16.40
2022-10-29T05:33:28.421Z,16.30
2022-10-29T05:35:55.282Z,16.30
2022-10-29T05:38:23.569Z,16.40
2022-10-29T05:40:51.828Z,16.30
2022-10-29T05:43:18.683Z,16.30
2022-10-29T05:45:45.817Z,16.20
2022-10-29T05:50:39.945Z,16.30
2022-10-29T05:53:09.650Z,16.30
2022-10-29T05:55:36.751Z,16.30
2022-10-29T05:58:06.601Z,16.30
2022-10-29T06:00:36.913Z,16.30
2022-10-29T06:03:04.169Z,16.30
2022-10-29T06:05:31.017Z,16.30
2022-10-29T06:07:59.563Z,16.40
2022-10-29T06:10:30.000Z,16.30
2022-10-29T06:12:56.872Z,16.40
2022-10-29T10:44:24.515Z,16.40
2022-10-29T10:46:54.480Z,21.10
2022-10-29T11:07:32.169Z,21.30
2022-10-29T11:10:02.697Z,21.80
2022-10-29T21:39:12.294Z,22.10
2022-10-29T21:41:42.384Z,19.40
2022-10-29T21:44:09.479Z,19.20
2022-10-29T21:46:40.355Z,19.20
2022-10-29T21:49:07.175Z,19.20
2022-10-29T21:51:35.320Z,19.20
2022-10-29T21:54:02.177Z,19.30
2022-10-29T21:56:28.928Z,19.20
2022-10-29T21:58:55.763Z,19.00
2022-10-29T22:01:22.815Z,19.00
2022-10-29T22:03:49.701Z,19.10
2022-10-29T22:06:19.172Z,19.00
2022-10-29T22:08:47.196Z,19.00
2022-10-29T22:11:14.933Z,18.90
2022-10-29T22:13:41.777Z,18.80
2022-10-29T22:16:10.011Z,18.80
2022-10-29T22:18:37.166Z,18.70
2022-10-29T22:21:24.635Z,18.70
2022-10-29T22:23:53.574Z,18.80
2022-10-29T22:26:22.902Z,18.70
2022-10-29T22:28:50.237Z,18.70
2022-10-29T22:31:18.532Z,18.60
2022-10-29T22:33:45.994Z,18.50
2022-10-29T22:36:15.677Z,18.60
2022-10-29T22:38:42.501Z,18.50
2022-10-29T22:41:11.463Z,18.60
2022-10-29T22:43:39.278Z,18.50
2022-10-29T22:46:07.707Z,18.50
2022-10-29T22:48:35.148Z,18.40
2022-10-29T22:51:12.219Z,18.40
2022-10-29T22:53:39.479Z,18.40
2022-10-29T22:56:09.638Z,18.40
2022-10-29T22:58:36.350Z,18.40
2022-10-29T23:01:09.678Z,18.40
2022-10-29T23:03:39.167Z,18.40
2022-10-29T23:06:09.277Z,18.30
2022-10-29T23:08:36.555Z,18.30
2022-10-29T23:11:12.511Z,18.40
2022-10-29T23:13:39.730Z,18.30
2022-10-29T23:16:07.210Z,18.30
2022-10-29T23:18:34.102Z,18.30
2022-10-29T23:21:05.909Z,18.20
2022-10-29T23:23:34.238Z,18.20
2022-10-29T23:26:02.289Z,18.30
2022-10-29T23:28:37.403Z,18.20
2022-10-29T23:31:06.364Z,18.20
2022-10-29T23:33:33.983Z,18.20
2022-10-29T23:36:09.290Z,18.20
2022-10-29T23:38:36.157Z,18.10
2022-10-29T23:41:03.547Z,18.20
2022-10-29T23:43:30.543Z,18.20
2022-10-29T23:45:57.606Z,18.10
2022-10-29T23:48:24.691Z,18.10
2022-10-29T23:50:51.905Z,18.10
2022-10-29T23:53:18.955Z,18.10
2022-10-29T23:55:46.086Z,18.00
2022-10-29T23:58:13.693Z,18.00
